<?xml version="1.0" encoding="utf-8"?>
<gpx xmlns:xsi="http://www.w3.org/2001/XMLSchema-instance" xmlns:xsd="http://www.w3.org/2001/XMLSchema" version="1.1" creator="Shapelink.com" xmlns="http://www.topografix.com/GPX/1/1" xmlns:gpxtpx="http://www.garmin.com/xmlschemas/TrackPointExtension/v1">
  <metadata>
    <name>Ejecutar 1.04 km, 2020-02-13</name>
    <desc></desc>
    <author><name>Per Rooth</name></author> 
    <time>2020-02-13T18:07:40Z</time>
  </metadata>
  <trk>
    <name>Ejecutar 1.04 km, 2020-02-13</name>
    <trkseg>
      <trkpt lat="56.900793772411" lon="14.803270907792">
        <ele>178.8</ele>
        <time>2020-02-13T18:07:40Z</time>
      </trkpt>
      <trkpt lat="56.900794945877" lon="14.803304854487">
        <ele>178.8</ele>
        <time>2020-02-13T18:07:41Z</time>
      </trkpt>
      <trkpt lat="56.900797041352" lon="14.803463356216">
        <ele>179.2</ele>
        <time>2020-02-13T18:07:45Z</time>
      </trkpt>
      <trkpt lat="56.900817157912" lon="14.80377818038">
        <ele>179.8</ele>
        <time>2020-02-13T18:07:52Z</time>
      </trkpt>
      <trkpt lat="56.900854289729" lon="14.804137344795">
        <ele>179.2</ele>
        <time>2020-02-13T18:08:00Z</time>
      </trkpt>
      <trkpt lat="56.900895025763" lon="14.804465328542">
        <ele>180</ele>
        <time>2020-02-13T18:08:07Z</time>
      </trkpt>
      <trkpt lat="56.900939785109" lon="14.804816613971">
        <ele>180</ele>
        <time>2020-02-13T18:08:14Z</time>
      </trkpt>
      <trkpt lat="56.900991752889" lon="14.805145435908">
        <ele>179.4</ele>
        <time>2020-02-13T18:08:21Z</time>
      </trkpt>
      <trkpt lat="56.901070375111" lon="14.805484902858">
        <ele>179.6</ele>
        <time>2020-02-13T18:08:29Z</time>
      </trkpt>
      <trkpt lat="56.901079092287" lon="14.805529913661">
        <ele>179.4</ele>
        <time>2020-02-13T18:08:30Z</time>
      </trkpt>
      <trkpt lat="56.901101723417" lon="14.805615325222">
        <ele>178.8</ele>
        <time>2020-02-13T18:08:32Z</time>
      </trkpt>
      <trkpt lat="56.901168778617" lon="14.805954708353">
        <ele>178.8</ele>
        <time>2020-02-13T18:08:39Z</time>
      </trkpt>
      <trkpt lat="56.901227954831" lon="14.806293672389">
        <ele>178.4</ele>
        <time>2020-02-13T18:08:46Z</time>
      </trkpt>
      <trkpt lat="56.90125988987" lon="14.806645460732">
        <ele>178</ele>
        <time>2020-02-13T18:08:53Z</time>
      </trkpt>
      <trkpt lat="56.901261482431" lon="14.806698769616">
        <ele>177.8</ele>
        <time>2020-02-13T18:08:54Z</time>
      </trkpt>
      <trkpt lat="56.901291908728" lon="14.807039661489">
        <ele>177</ele>
        <time>2020-02-13T18:09:01Z</time>
      </trkpt>
      <trkpt lat="56.901284365018" lon="14.807086432491">
        <ele>176.8</ele>
        <time>2020-02-13T18:09:02Z</time>
      </trkpt>
      <trkpt lat="56.90128335919" lon="14.807131694751">
        <ele>176.4</ele>
        <time>2020-02-13T18:09:03Z</time>
      </trkpt>
      <trkpt lat="56.901305403587" lon="14.807498821971">
        <ele>175.6</ele>
        <time>2020-02-13T18:09:11Z</time>
      </trkpt>
      <trkpt lat="56.901308253433" lon="14.807546514982">
        <ele>175.4</ele>
        <time>2020-02-13T18:09:12Z</time>
      </trkpt>
      <trkpt lat="56.901341026662" lon="14.807828817374">
        <ele>174.2</ele>
        <time>2020-02-13T18:09:19Z</time>
      </trkpt>
      <trkpt lat="56.901387127112" lon="14.808168535781">
        <ele>173.2</ele>
        <time>2020-02-13T18:09:27Z</time>
      </trkpt>
      <trkpt lat="56.901409003871" lon="14.808246235994">
        <ele>172.8</ele>
        <time>2020-02-13T18:09:29Z</time>
      </trkpt>
      <trkpt lat="56.90142585149" lon="14.808324942035">
        <ele>172.2</ele>
        <time>2020-02-13T18:09:31Z</time>
      </trkpt>
      <trkpt lat="56.901527775394" lon="14.808608417893">
        <ele>171.6</ele>
        <time>2020-02-13T18:09:39Z</time>
      </trkpt>
      <trkpt lat="56.901573792025" lon="14.808958026942">
        <ele>171.4</ele>
        <time>2020-02-13T18:09:47Z</time>
      </trkpt>
      <trkpt lat="56.901579910812" lon="14.809160617465">
        <ele>171.4</ele>
        <time>2020-02-13T18:09:52Z</time>
      </trkpt>
      <trkpt lat="56.901591058739" lon="14.809446440255">
        <ele>171.2</ele>
        <time>2020-02-13T18:09:58Z</time>
      </trkpt>
      <trkpt lat="56.901591980748" lon="14.809498072759">
        <ele>170.8</ele>
        <time>2020-02-13T18:09:59Z</time>
      </trkpt>
      <trkpt lat="56.90162114976" lon="14.809829241628">
        <ele>170.8</ele>
        <time>2020-02-13T18:10:06Z</time>
      </trkpt>
      <trkpt lat="56.901639757578" lon="14.810163176524">
        <ele>170.2</ele>
        <time>2020-02-13T18:10:13Z</time>
      </trkpt>
      <trkpt lat="56.901674877739" lon="14.810509851908">
        <ele>170.2</ele>
        <time>2020-02-13T18:10:21Z</time>
      </trkpt>
      <trkpt lat="56.90172257075" lon="14.810870189789">
        <ele>170.6</ele>
        <time>2020-02-13T18:10:29Z</time>
      </trkpt>
      <trkpt lat="56.901728773356" lon="14.810908997986">
        <ele>170.8</ele>
        <time>2020-02-13T18:10:30Z</time>
      </trkpt>
      <trkpt lat="56.901723492759" lon="14.811238239018">
        <ele>171</ele>
        <time>2020-02-13T18:10:37Z</time>
      </trkpt>
      <trkpt lat="56.901715949049" lon="14.811363213147">
        <ele>171.2</ele>
        <time>2020-02-13T18:10:40Z</time>
      </trkpt>
      <trkpt lat="56.901732880487" lon="14.811726819969">
        <ele>170.8</ele>
        <time>2020-02-13T18:10:49Z</time>
      </trkpt>
      <trkpt lat="56.901740508016" lon="14.812082296348">
        <ele>170.4</ele>
        <time>2020-02-13T18:10:57Z</time>
      </trkpt>
      <trkpt lat="56.901729779184" lon="14.812408100801">
        <ele>169.8</ele>
        <time>2020-02-13T18:11:03Z</time>
      </trkpt>
      <trkpt lat="56.901726342605" lon="14.812738934394">
        <ele>169.4</ele>
        <time>2020-02-13T18:11:09Z</time>
      </trkpt>
      <trkpt lat="56.901722486931" lon="14.812950912645">
        <ele>169.2</ele>
        <time>2020-02-13T18:11:13Z</time>
      </trkpt>
      <trkpt lat="56.901723660397" lon="14.813038419681">
        <ele>169.4</ele>
        <time>2020-02-13T18:11:15Z</time>
      </trkpt>
      <trkpt lat="56.901745453337" lon="14.81337880864">
        <ele>169.2</ele>
        <time>2020-02-13T18:11:23Z</time>
      </trkpt>
      <trkpt lat="56.901747213536" lon="14.813449887152">
        <ele>169.2</ele>
        <time>2020-02-13T18:11:25Z</time>
      </trkpt>
      <trkpt lat="56.901742352034" lon="14.813646107431">
        <ele>169.4</ele>
        <time>2020-02-13T18:11:30Z</time>
      </trkpt>
      <trkpt lat="56.901732712849" lon="14.814008121692">
        <ele>169.8</ele>
        <time>2020-02-13T18:11:38Z</time>
      </trkpt>
      <trkpt lat="56.901707567149" lon="14.814370052134">
        <ele>170.8</ele>
        <time>2020-02-13T18:11:47Z</time>
      </trkpt>
      <trkpt lat="56.901707902425" lon="14.814413638014">
        <ele>171</ele>
        <time>2020-02-13T18:11:48Z</time>
      </trkpt>
      <trkpt lat="56.901723660397" lon="14.814627041188">
        <ele>172</ele>
        <time>2020-02-13T18:11:53Z</time>
      </trkpt>
      <trkpt lat="56.901741681482" lon="14.814679930977">
        <ele>172.2</ele>
        <time>2020-02-13T18:11:55Z</time>
      </trkpt>
      <trkpt lat="56.90184243192" lon="14.814744806883">
        <ele>173</ele>
        <time>2020-02-13T18:12:01Z</time>
      </trkpt>
      <trkpt lat="56.901856764969" lon="14.814743717236">
        <ele>173.4</ele>
        <time>2020-02-13T18:12:02Z</time>
      </trkpt>
      <trkpt lat="56.901898423012" lon="14.814722091934">
        <ele>173.2</ele>
        <time>2020-02-13T18:12:05Z</time>
      </trkpt>
      <trkpt lat="56.901973943931" lon="14.814804737468">
        <ele>172</ele>
        <time>2020-02-13T18:12:34Z</time>
      </trkpt>
      <trkpt lat="56.902055248361" lon="14.814837091602">
        <ele>173.2</ele>
        <time>2020-02-13T18:12:37Z</time>
      </trkpt>
      <trkpt lat="56.902113334928" lon="14.814831475729">
        <ele>174.6</ele>
        <time>2020-02-13T18:12:39Z</time>
      </trkpt>
      <trkpt lat="56.902301424764" lon="14.814872966134">
        <ele>175.2</ele>
        <time>2020-02-13T18:12:45Z</time>
      </trkpt>
      <trkpt lat="56.902401253193" lon="14.814919150403">
        <ele>175.8</ele>
        <time>2020-02-13T18:12:49Z</time>
      </trkpt>
      <trkpt lat="56.902606945019" lon="14.815017302452">
        <ele>175.8</ele>
        <time>2020-02-13T18:12:56Z</time>
      </trkpt>
      <trkpt lat="56.902742899437" lon="14.815296419722">
        <ele>174.4</ele>
        <time>2020-02-13T18:13:02Z</time>
      </trkpt>
      <trkpt lat="56.902802746203" lon="14.815578722114">
        <ele>173.4</ele>
        <time>2020-02-13T18:13:08Z</time>
      </trkpt>
      <trkpt lat="56.90284574535" lon="14.81589421683">
        <ele>172.2</ele>
        <time>2020-02-13T18:13:15Z</time>
      </trkpt>
      <trkpt lat="56.902900646795" lon="14.816188505339">
        <ele>171.6</ele>
        <time>2020-02-13T18:13:22Z</time>
      </trkpt>
      <trkpt lat="56.902926043952" lon="14.816294955469">
        <ele>171.2</ele>
        <time>2020-02-13T18:13:24Z</time>
      </trkpt>
      <trkpt lat="56.90296812109" lon="14.816607265063">
        <ele>171</ele>
        <time>2020-02-13T18:13:30Z</time>
      </trkpt>
      <trkpt lat="56.903007180744" lon="14.816665100173">
        <ele>171.4</ele>
        <time>2020-02-13T18:13:32Z</time>
      </trkpt>
      <trkpt lat="56.90319443239" lon="14.816701729076">
        <ele>171.2</ele>
        <time>2020-02-13T18:13:41Z</time>
      </trkpt>
      <trkpt lat="56.903394927438" lon="14.816723270559">
        <ele>171.6</ele>
        <time>2020-02-13T18:13:49Z</time>
      </trkpt>
      <trkpt lat="56.903587208224" lon="14.81672821588">
        <ele>171.4</ele>
        <time>2020-02-13T18:13:57Z</time>
      </trkpt>
      <trkpt lat="56.903669015568" lon="14.816727461509">
        <ele>171.6</ele>
        <time>2020-02-13T18:14:00Z</time>
      </trkpt>
      <trkpt lat="56.903851657169" lon="14.816739028531">
        <ele>171.4</ele>
        <time>2020-02-13T18:14:07Z</time>
      </trkpt>
      <trkpt lat="56.90400831488" lon="14.816584214838">
        <ele>171.8</ele>
        <time>2020-02-13T18:14:14Z</time>
      </trkpt>
      <trkpt lat="56.904081740324" lon="14.816486398065">
        <ele>171.8</ele>
        <time>2020-02-13T18:14:18Z</time>
      </trkpt>
    </trkseg>
  </trk>
</gpx>